Videos of initiation flights.

METAR:

LFQA 011100Z AUTO 11006KT 090V150 CAVOK 22/15 Q1025


live view of the airfield
invoicing legal Notice privacy policy
Cochet Concept
cx